Ngurah Rai (Bali) International Airport
WADD : now visible

Airfield :











YOU CAN JOIN US ON...

 
LOGIN :

Register | Disclaimer

   EN    FR    IT 

 









Legend :    VFR   Marginal VFR   IFR   Intensive IFR   Very Intensive IFR
Visi :
Ceiling :
>= 8 km
>= 3000ft
5 to 8 km
1000 to 3000 ft
1500m to 5 km
500 to 1000 ft
800 to 1500m
200 to 500 ft
< 800m
< 200 ft
Symbols :   Thunderstorms  Fog  Heavy snow  Heavy precipitations  Wind > 20 kt






- Airport Elevation : 14 ft
- IATA code : DPS


WADD - Ngurah Rai (Bali) International

CURRENT METAR :
  • 291700Z 05008KT 9000 -RA BKN016 26/26 Q1013 TEMPO TL1900 90000 -RA

EXPIRED METARs :
  • 291630Z 04005KT 9999 SCT016 26/26 Q1013 NOSIG
  • 291600Z 03006KT 9999 SCT016 27/27 Q1013 NOSIG
  • 291530Z 05006KT 9999 SCT016 27/26 Q1013 NOSIG
  • 291500Z 07007KT 9999 FEW017CB SCT017 27/27 Q1013 RERA NOSIG
  • 291430Z 05007KT 8000 -RA FEW016CB SCT016 27/27 Q1013 RETS TEMPO TL1530 8000 -RA

TAF TAF WADD
Valid from the 29 at 12:00 until the 30 at 12:00 UTC


291100Z 2912/3012 23010KT 9999 SCT016
BECMG 2914/2916 VRB05KT
TEMPO 2914/2918 5000 TSRA FEW015CB BKN015
WAAF FIR / Asia



MET'MAP, your aeronautical weather chart ! - Copyright ORBIFLY December 2007 - Disclaimer

ORBIFLY MET'MAP TEAM :

Programming & Development : Alexandra Zaïnal
Concept & original design : Baudouin d'Aumeries
Assistance for programming : Marc-Olivier Méhu
Technical & hardware support : Manuel Goepfert

Contact : metmap@orbifly.com




SOURCES & CREDITS :

   NOAA       Earth
Advisory